Time;durP1;ratioP1;P1;durP2;ratioP2;P2;SDS_P1;SDS_P2;PMS_P1;PMS_P2;Temp;Humidity;BMP_temperature;BMP_pressure;BME280_temperature;BME280_humidity;BME280_pressure;Samples;Min_cycle;Max_cycle;Signal;HPM_P1;HPM_P2
2022/07/23 00:01:04;;;;;;;31.67;16.73;;;;;;;;;;5127354;27;20039;-74
2022/07/23 00:03:34;;;;;;;25.98;16.98;;;;;;;;;;5126423;27;20421;-74
2022/07/23 00:06:04;;;;;;;26.42;15.82;;;;;;;;;;5126702;27;20421;-73
2022/07/23 00:08:37;;;;;;;28.40;17.60;;;;;;;;;;5126131;27;20042;-75
2022/07/23 00:11:07;;;;;;;28.63;20.33;;;;;;;;;;5126122;27;20057;-74
2022/07/23 00:13:37;;;;;;;30.45;18.13;;;;;;;;;;5128652;27;20035;-73
2022/07/23 00:16:07;;;;;;;28.08;18.75;;;;;;;;;;5127987;27;20054;-73
2022/07/23 00:18:37;;;;;;;27.27;17.08;;;;;;;;;;5127935;27;20035;-74
2022/07/23 00:21:07;;;;;;;25.98;16.10;;;;;;;;;;5126367;27;20422;-74
2022/07/23 00:23:37;;;;;;;29.40;16.65;;;;;;;;;;5128108;27;20039;-73
2022/07/23 00:26:07;;;;;;;22.67;15.15;;;;;;;;;;5127429;27;20039;-74
2022/07/23 00:28:37;;;;;;;26.50;16.00;;;;;;;;;;5127315;27;20486;-74
2022/07/23 00:31:07;;;;;;;28.15;16.48;;;;;;;;;;5110014;27;20046;-73
2022/07/23 00:33:37;;;;;;;27.25;19.27;;;;;;;;;;5125901;27;20043;-74
2022/07/23 00:36:07;;;;;;;31.08;16.35;;;;;;;;;;5126762;27;20042;-73
2022/07/23 00:38:37;;;;;;;30.08;21.08;;;;;;;;;;5126621;27;20055;-73
2022/07/23 00:41:07;;;;;;;26.15;17.08;;;;;;;;;;5125435;27;20051;-73
2022/07/23 00:43:37;;;;;;;31.23;18.17;;;;;;;;;;5124943;27;20058;-73
2022/07/23 00:46:07;;;;;;;26.45;17.38;;;;;;;;;;5125863;27;20059;-73
2022/07/23 00:48:37;;;;;;;29.88;17.80;;;;;;;;;;5125066;27;20042;-73
2022/07/23 00:51:07;;;;;;;33.45;18.58;;;;;;;;;;5126936;27;20050;-73
2022/07/23 00:53:38;;;;;;;22.15;14.73;;;;;;;;;;5125059;27;20042;-73
2022/07/23 00:56:10;;;;;;;27.50;16.63;;;;;;;;;;5126208;27;20050;-73
2022/07/23 00:58:42;;;;;;;31.52;17.08;;;;;;;;;;5124945;27;20050;-73
2022/07/23 01:01:13;;;;;;;23.98;15.18;;;;;;;;;;5126769;27;20050;-72
2022/07/23 01:03:43;;;;;;;25.48;16.33;;;;;;;;;;5126641;27;20508;-73
2022/07/23 01:06:14;;;;;;;19.63;10.95;;;;;;;;;;5127160;27;20410;-74
2022/07/23 01:08:45;;;;;;;21.85;13.88;;;;;;;;;;5125748;27;20046;-73
2022/07/23 01:11:14;;;;;;;18.88;12.95;;;;;;;;;;5122493;27;20047;-73
2022/07/23 01:13:44;;;;;;;24.75;14.38;;;;;;;;;;5124613;27;20043;-73
2022/07/23 01:16:14;;;;;;;19.77;13.88;;;;;;;;;;5124980;27;20542;-74
2022/07/23 01:18:45;;;;;;;18.48;14.00;;;;;;;;;;5125284;27;20051;-73
2022/07/23 01:21:19;;;;;;;15.70;9.13;;;;;;;;;;5127805;27;20047;-74
2022/07/23 01:23:49;;;;;;;21.77;10.75;;;;;;;;;;5126458;27;20403;-73
2022/07/23 01:26:19;;;;;;;18.05;11.32;;;;;;;;;;5126696;27;20040;-74
2022/07/23 01:28:49;;;;;;;17.85;11.68;;;;;;;;;;5127239;27;20047;-74
2022/07/23 01:31:19;;;;;;;15.80;10.50;;;;;;;;;;5126840;27;20059;-73
2022/07/23 01:33:50;;;;;;;9.75;6.05;;;;;;;;;;5126752;27;20533;-73
2022/07/23 01:36:19;;;;;;;12.30;8.10;;;;;;;;;;5126344;27;20054;-73
2022/07/23 01:38:50;;;;;;;12.82;6.95;;;;;;;;;;5126378;27;20502;-73
2022/07/23 01:41:22;;;;;;;14.52;7.10;;;;;;;;;;5126208;27;20803;-73
2022/07/23 01:43:54;;;;;;;10.18;7.30;;;;;;;;;;5127385;28;20035;-73
2022/07/23 01:46:25;;;;;;;16.90;8.27;;;;;;;;;;5125899;28;20047;-73
2022/07/23 01:48:55;;;;;;;14.80;7.25;;;;;;;;;;5126043;27;20047;-74
2022/07/23 01:52:02;;;;;;;12.50;6.65;;;;;;;;;;5126433;27;20051;-72
2022/07/23 01:54:41;;;;;;;10.55;5.25;;;;;;;;;;5126359;27;20054;-72
2022/07/23 01:57:11;;;;;;;10.27;5.28;;;;;;;;;;5126674;27;20070;-73
2022/07/23 01:59:41;;;;;;;12.65;5.10;;;;;;;;;;5109481;28;20051;-74
2022/07/23 02:02:11;;;;;;;9.18;6.03;;;;;;;;;;5126038;27;20525;-72
2022/07/23 02:04:41;;;;;;;10.68;5.20;;;;;;;;;;5109125;28;20514;-73
2022/07/23 02:07:11;;;;;;;9.65;4.85;;;;;;;;;;5126664;27;20051;-73
2022/07/23 02:09:41;;;;;;;8.65;4.43;;;;;;;;;;5127301;28;20047;-73
2022/07/23 02:12:13;;;;;;;7.45;5.68;;;;;;;;;;5126827;28;20524;-73
2022/07/23 02:14:45;;;;;;;11.10;5.07;;;;;;;;;;5125954;27;20047;-73
2022/07/23 02:17:16;;;;;;;9.75;4.72;;;;;;;;;;5126139;27;20058;-72
2022/07/23 02:19:46;;;;;;;8.85;4.72;;;;;;;;;;5126834;28;20054;-72
2022/07/23 02:22:17;;;;;;;8.52;5.00;;;;;;;;;;5128211;28;20039;-73
2022/07/23 02:24:49;;;;;;;9.90;4.78;;;;;;;;;;5125839;27;20059;-73
2022/07/23 02:27:21;;;;;;;9.55;5.05;;;;;;;;;;5128423;27;20058;-73
2022/07/23 02:29:53;;;;;;;9.93;5.13;;;;;;;;;;5129184;27;20051;-73
2022/07/23 02:32:23;;;;;;;10.65;5.85;;;;;;;;;;5130524;27;20050;-73
2022/07/23 02:34:53;;;;;;;7.25;4.93;;;;;;;;;;5129416;27;20047;-73
2022/07/23 02:37:23;;;;;;;8.88;4.72;;;;;;;;;;5129167;27;20051;-74
2022/07/23 02:39:53;;;;;;;8.52;5.18;;;;;;;;;;5129286;27;20047;-73
2022/07/23 02:42:23;;;;;;;8.57;4.82;;;;;;;;;;5129272;27;20082;-73
2022/07/23 02:44:53;;;;;;;10.40;4.45;;;;;;;;;;5129815;27;20054;-73
2022/07/23 02:47:23;;;;;;;8.88;4.55;;;;;;;;;;5112899;27;20051;-73
2022/07/23 02:49:53;;;;;;;10.57;6.18;;;;;;;;;;5130584;27;20047;-73
2022/07/23 02:52:24;;;;;;;9.57;5.75;;;;;;;;;;5129875;27;20047;-73
2022/07/23 02:54:54;;;;;;;8.27;5.03;;;;;;;;;;5129284;27;20058;-74
2022/07/23 02:57:23;;;;;;;11.57;5.30;;;;;;;;;;5129342;27;20399;-74
2022/07/23 02:59:53;;;;;;;10.85;5.45;;;;;;;;;;5129076;27;20059;-73
2022/07/23 03:02:24;;;;;;;9.52;5.00;;;;;;;;;;5128899;27;20529;-74
2022/07/23 03:04:55;;;;;;;5.88;4.30;;;;;;;;;;5130282;27;20046;-74
2022/07/23 03:07:26;;;;;;;7.18;4.75;;;;;;;;;;5128904;27;20043;-74
2022/07/23 03:09:55;;;;;;;7.70;4.07;;;;;;;;;;5112604;27;20421;-74
2022/07/23 03:12:25;;;;;;;8.93;3.67;;;;;;;;;;5130073;27;20042;-74
2022/07/23 03:14:55;;;;;;;10.45;3.95;;;;;;;;;;5130943;27;20402;-74
2022/07/23 03:17:25;;;;;;;6.13;4.00;;;;;;;;;;5129716;27;20047;-74
2022/07/23 03:19:55;;;;;;;9.93;4.00;;;;;;;;;;5128821;27;20051;-75
2022/07/23 03:22:25;;;;;;;9.60;3.35;;;;;;;;;;5128933;27;20047;-74
2022/07/23 03:24:55;;;;;;;8.52;3.15;;;;;;;;;;5128566;27;20039;-74
2022/07/23 03:27:32;;;;;;;9.05;3.30;;;;;;;;;;5128461;27;20062;-73
2022/07/23 03:30:03;;;;;;;7.60;3.63;;;;;;;;;;5130079;27;20035;-73
2022/07/23 03:32:34;;;;;;;10.35;3.22;;;;;;;;;;5130152;27;20050;-74
2022/07/23 03:35:06;;;;;;;7.90;3.22;;;;;;;;;;5127770;27;20047;-73
2022/07/23 03:37:42;;;;;;;10.07;3.13;;;;;;;;;;5127402;27;20051;-74
2022/07/23 03:40:15;;;;;;;7.28;3.53;;;;;;;;;;5129681;27;20039;-73
2022/07/23 03:42:45;;;;;;;7.75;3.10;;;;;;;;;;5128388;27;20055;-74
2022/07/23 03:45:15;;;;;;;6.85;3.22;;;;;;;;;;5128918;27;20510;-74
2022/07/23 03:47:45;;;;;;;9.40;2.90;;;;;;;;;;5129486;27;20043;-73
2022/07/23 03:50:15;;;;;;;3.67;3.00;;;;;;;;;;5127921;27;20054;-74
2022/07/23 03:52:45;;;;;;;5.35;3.30;;;;;;;;;;5127864;27;20502;-74
2022/07/23 03:55:15;;;;;;;6.85;3.03;;;;;;;;;;5127555;27;20440;-73
2022/07/23 03:57:46;;;;;;;7.45;2.53;;;;;;;;;;5127788;27;20414;-74
2022/07/23 04:00:16;;;;;;;8.27;2.83;;;;;;;;;;5127810;27;20047;-74
2022/07/23 04:02:50;;;;;;;6.85;2.55;;;;;;;;;;5127854;27;20070;-74
2022/07/23 04:05:20;;;;;;;6.68;3.42;;;;;;;;;;5128243;27;20051;-74
2022/07/23 04:07:55;;;;;;;6.10;3.25;;;;;;;;;;5128435;27;20055;-74
2022/07/23 04:10:25;;;;;;;5.47;3.20;;;;;;;;;;5127830;27;20640;-74
2022/07/23 04:12:55;;;;;;;8.68;3.25;;;;;;;;;;5127612;27;20055;-74
2022/07/23 04:15:25;;;;;;;7.70;2.75;;;;;;;;;;5128580;27;20430;-74
2022/07/23 04:17:55;;;;;;;6.15;2.53;;;;;;;;;;5127314;27;20426;-74
2022/07/23 04:20:31;;;;;;;11.57;2.70;;;;;;;;;;5127246;27;20429;-74
2022/07/23 04:23:10;;;;;;;6.00;2.95;;;;;;;;;;5127533;27;20054;-74
2022/07/23 04:25:41;;;;;;;7.60;2.67;;;;;;;;;;5127040;27;20536;-74
2022/07/23 04:28:11;;;;;;;8.00;2.90;;;;;;;;;;5127013;27;20062;-74
2022/07/23 04:30:42;;;;;;;6.63;2.90;;;;;;;;;;5127360;27;20524;-74
2022/07/23 04:33:14;;;;;;;3.53;2.53;;;;;;;;;;5127205;27;20051;-74
2022/07/23 04:35:46;;;;;;;6.13;3.10;;;;;;;;;;5127345;27;20047;-74
2022/07/23 04:38:21;;;;;;;5.30;2.88;;;;;;;;;;5126943;27;20058;-74
2022/07/23 04:40:54;;;;;;;4.25;2.45;;;;;;;;;;5126673;27;20062;-75
2022/07/23 04:43:24;;;;;;;2.47;1.77;;;;;;;;;;5127181;27;20047;-73
2022/07/23 04:45:55;;;;;;;5.63;2.20;;;;;;;;;;5127127;27;20059;-74
2022/07/23 04:48:25;;;;;;;4.85;2.17;;;;;;;;;;5127035;27;20058;-74
2022/07/23 04:51:05;;;;;;;4.82;2.70;;;;;;;;;;5126926;27;20050;-73
2022/07/23 04:53:38;;;;;;;5.05;2.35;;;;;;;;;;5127115;27;20058;-73
2022/07/23 04:56:08;;;;;;;7.15;4.22;;;;;;;;;;5128127;27;20501;-74
2022/07/23 04:58:38;;;;;;;10.98;8.02;;;;;;;;;;5126558;27;20059;-74
2022/07/23 05:01:08;;;;;;;16.80;10.27;;;;;;;;;;5126762;27;20047;-74
2022/07/23 05:03:38;;;;;;;14.25;10.20;;;;;;;;;;5127080;27;20051;-73
2022/07/23 05:06:08;;;;;;;16.80;12.43;;;;;;;;;;5127103;27;20057;-74
2022/07/23 05:08:38;;;;;;;16.77;10.70;;;;;;;;;;5128158;27;20046;-73
2022/07/23 05:11:10;;;;;;;19.55;10.90;;;;;;;;;;5126973;27;20047;-73
2022/07/23 05:13:40;;;;;;;13.80;8.85;;;;;;;;;;5126485;27;20054;-73
2022/07/23 05:16:10;;;;;;;12.80;9.60;;;;;;;;;;5126355;27;20062;-73
2022/07/23 05:18:40;;;;;;;13.25;7.35;;;;;;;;;;5126478;27;20059;-74
2022/07/23 05:21:12;;;;;;;14.18;7.20;;;;;;;;;;5127638;27;20087;-74
2022/07/23 05:23:42;;;;;;;9.52;6.15;;;;;;;;;;5126736;27;20058;-73
2022/07/23 05:26:12;;;;;;;12.63;6.47;;;;;;;;;;5127018;27;20051;-73
2022/07/23 05:28:41;;;;;;;9.82;6.43;;;;;;;;;;5126340;28;20509;-73
2022/07/23 05:31:19;;;;;;;11.65;6.03;;;;;;;;;;5126086;28;20050;-74
2022/07/23 05:33:49;;;;;;;10.13;6.53;;;;;;;;;;5126410;27;20513;-74
2022/07/23 05:36:19;;;;;;;11.10;7.35;;;;;;;;;;5109402;28;20055;-74
2022/07/23 05:38:55;;;;;;;11.38;6.88;;;;;;;;;;5126229;27;20121;-73
2022/07/23 05:41:28;;;;;;;12.70;8.23;;;;;;;;;;5126465;27;20050;-74
2022/07/23 05:43:59;;;;;;;13.38;7.75;;;;;;;;;;5125872;28;20047;-73
2022/07/23 05:46:30;;;;;;;14.07;7.68;;;;;;;;;;5126272;27;20055;-74
2022/07/23 05:49:06;;;;;;;10.57;6.85;;;;;;;;;;5126200;27;20047;-74
2022/07/23 05:52:07;;;;;;;11.38;6.47;;;;;;;;;;5113771;28;20047;-73
2022/07/23 05:55:15;;;;;;;12.63;7.07;;;;;;;;;;5127301;27;20043;-74
2022/07/23 05:57:46;;;;;;;9.93;5.68;;;;;;;;;;5125970;28;20506;-73
2022/07/23 06:00:15;;;;;;;11.82;6.10;;;;;;;;;;5126382;27;20039;-73
2022/07/23 06:02:47;;;;;;;8.98;6.68;;;;;;;;;;5128990;27;20055;-74
2022/07/23 06:05:24;;;;;;;9.93;6.05;;;;;;;;;;5130467;27;20074;-74
2022/07/23 06:07:57;;;;;;;11.00;6.43;;;;;;;;;;5130456;27;20402;-73
2022/07/23 06:10:28;;;;;;;14.65;6.63;;;;;;;;;;5130291;27;20682;-74
2022/07/23 06:12:58;;;;;;;13.07;7.32;;;;;;;;;;5129508;27;20047;-73
2022/07/23 06:15:31;;;;;;;15.05;7.18;;;;;;;;;;5130458;27;20499;-73
2022/07/23 06:18:03;;;;;;;10.15;6.28;;;;;;;;;;5130495;27;20059;-74
2022/07/23 06:20:33;;;;;;;9.73;6.57;;;;;;;;;;5130088;27;20391;-73
2022/07/23 06:23:03;;;;;;;10.63;7.47;;;;;;;;;;5130044;27;20047;-74
2022/07/23 06:25:33;;;;;;;12.23;9.18;;;;;;;;;;5129853;27;20055;-74
2022/07/23 06:28:05;;;;;;;15.65;7.10;;;;;;;;;;5129650;27;20062;-74
2022/07/23 06:30:35;;;;;;;13.02;9.55;;;;;;;;;;5129773;27;20051;-74
2022/07/23 06:33:06;;;;;;;13.15;7.53;;;;;;;;;;5129632;27;20418;-74
2022/07/23 06:35:36;;;;;;;11.65;8.50;;;;;;;;;;5130965;27;20035;-73
2022/07/23 06:38:07;;;;;;;12.52;7.13;;;;;;;;;;5129712;27;20047;-73
2022/07/23 06:40:37;;;;;;;11.88;7.60;;;;;;;;;;5129666;27;20441;-73
2022/07/23 06:43:06;;;;;;;16.40;8.18;;;;;;;;;;5131019;27;20050;-73
2022/07/23 06:45:38;;;;;;;12.88;8.27;;;;;;;;;;5129178;27;20062;-73
2022/07/23 06:48:08;;;;;;;12.55;7.95;;;;;;;;;;5129507;27;20422;-73
2022/07/23 06:50:38;;;;;;;11.65;9.13;;;;;;;;;;5113224;27;20510;-73
2022/07/23 06:53:08;;;;;;;15.68;8.77;;;;;;;;;;5130212;27;20050;-73
2022/07/23 06:55:42;;;;;;;14.35;9.65;;;;;;;;;;5129661;27;20047;-73
2022/07/23 06:58:13;;;;;;;15.85;8.25;;;;;;;;;;5129215;27;20418;-73
2022/07/23 07:00:45;;;;;;;14.50;9.55;;;;;;;;;;5129263;27;20084;-73
2022/07/23 07:03:16;;;;;;;15.55;9.02;;;;;;;;;;5129568;27;20055;-73
2022/07/23 07:05:48;;;;;;;11.73;8.98;;;;;;;;;;5130424;27;20047;-73
2022/07/23 07:08:17;;;;;;;15.70;9.98;;;;;;;;;;5129925;27;20047;-73
2022/07/23 07:10:47;;;;;;;15.55;10.30;;;;;;;;;;5130254;27;20039;-73
2022/07/23 07:13:17;;;;;;;16.80;9.35;;;;;;;;;;5129787;27;20043;-73
2022/07/23 07:15:49;;;;;;;15.10;8.90;;;;;;;;;;5128307;27;20454;-73
2022/07/23 07:18:21;;;;;;;15.25;9.77;;;;;;;;;;5130076;27;20051;-73
2022/07/23 07:20:51;;;;;;;12.90;8.90;;;;;;;;;;5129893;27;20043;-73
2022/07/23 07:23:24;;;;;;;13.02;9.55;;;;;;;;;;5130064;27;20051;-73
2022/07/23 07:25:54;;;;;;;13.73;9.50;;;;;;;;;;5129744;27;20050;-73
2022/07/23 07:28:24;;;;;;;15.82;10.20;;;;;;;;;;5128512;27;20058;-73
2022/07/23 07:30:53;;;;;;;14.68;9.02;;;;;;;;;;5129839;27;20047;-73
2022/07/23 07:33:24;;;;;;;15.88;8.57;;;;;;;;;;5129412;27;20055;-73
2022/07/23 07:35:53;;;;;;;12.38;9.45;;;;;;;;;;5129646;27;20066;-73
2022/07/23 07:38:23;;;;;;;13.48;9.00;;;;;;;;;;5128194;27;20525;-73
2022/07/23 07:40:53;;;;;;;18.05;10.55;;;;;;;;;;5129389;27;20054;-73
2022/07/23 07:43:23;;;;;;;13.88;8.95;;;;;;;;;;5129432;27;20054;-73
2022/07/23 07:45:53;;;;;;;14.82;9.15;;;;;;;;;;5129395;27;20059;-73
2022/07/23 07:48:23;;;;;;;16.05;9.43;;;;;;;;;;5130095;27;20061;-73
2022/07/23 07:50:53;;;;;;;14.93;9.15;;;;;;;;;;5128221;27;20058;-73
2022/07/23 07:53:23;;;;;;;18.73;11.00;;;;;;;;;;5129050;27;20047;-73
2022/07/23 07:55:53;;;;;;;13.98;9.88;;;;;;;;;;5127716;27;20062;-73
2022/07/23 07:58:23;;;;;;;14.05;8.63;;;;;;;;;;5127587;27;20518;-73
2022/07/23 08:00:53;;;;;;;17.45;9.57;;;;;;;;;;5128754;27;20051;-73
2022/07/23 08:03:23;;;;;;;14.57;10.30;;;;;;;;;;5129185;27;20051;-73
2022/07/23 08:05:53;;;;;;;17.02;10.48;;;;;;;;;;5127494;27;20078;-73
2022/07/23 08:08:23;;;;;;;20.20;11.48;;;;;;;;;;5129155;27;20058;-73
2022/07/23 08:10:52;;;;;;;15.52;9.43;;;;;;;;;;5128816;27;20043;-73
2022/07/23 08:13:22;;;;;;;23.77;12.80;;;;;;;;;;5128871;27;20047;-73
2022/07/23 08:15:55;;;;;;;23.58;12.05;;;;;;;;;;5128184;27;20051;-73
2022/07/23 08:18:25;;;;;;;19.58;12.18;;;;;;;;;;5129004;27;20047;-73
2022/07/23 08:20:55;;;;;;;18.88;12.07;;;;;;;;;;5129183;27;20047;-73
2022/07/23 08:23:25;;;;;;;16.90;12.82;;;;;;;;;;5128670;27;20062;-73
2022/07/23 08:25:59;;;;;;;21.38;13.02;;;;;;;;;;5128550;27;20043;-73
2022/07/23 08:28:32;;;;;;;19.00;12.88;;;;;;;;;;5128445;27;20047;-73
2022/07/23 08:31:05;;;;;;;17.65;12.25;;;;;;;;;;5128034;27;20518;-73
2022/07/23 08:33:35;;;;;;;18.85;12.73;;;;;;;;;;5128717;27;20046;-73
2022/07/23 08:36:06;;;;;;;23.17;13.40;;;;;;;;;;5128502;27;20047;-73
2022/07/23 08:38:36;;;;;;;21.15;13.48;;;;;;;;;;5128004;27;20043;-73
2022/07/23 08:41:08;;;;;;;26.35;13.98;;;;;;;;;;5128572;27;20050;-73
2022/07/23 08:43:40;;;;;;;20.95;13.20;;;;;;;;;;5128375;27;20031;-73
2022/07/23 08:46:12;;;;;;;22.27;13.23;;;;;;;;;;5128045;27;20367;-73
2022/07/23 08:48:43;;;;;;;26.63;15.25;;;;;;;;;;5128543;27;20043;-73
2022/07/23 08:51:13;;;;;;;22.38;13.30;;;;;;;;;;5128359;27;20054;-73
2022/07/23 08:53:45;;;;;;;29.10;13.95;;;;;;;;;;5128044;27;20047;-73
2022/07/23 08:56:16;;;;;;;26.77;13.23;;;;;;;;;;5128014;27;20038;-73
2022/07/23 08:58:46;;;;;;;22.23;14.73;;;;;;;;;;5127612;27;20588;-73
2022/07/23 09:01:16;;;;;;;30.10;15.88;;;;;;;;;;5128542;27;20050;-73
2022/07/23 09:03:46;;;;;;;26.58;14.07;;;;;;;;;;5127814;27;20047;-73
2022/07/23 09:06:15;;;;;;;26.60;14.65;;;;;;;;;;5126663;27;20129;-73
2022/07/23 09:08:46;;;;;;;22.52;13.90;;;;;;;;;;5127388;27;20078;-73
2022/07/23 09:11:18;;;;;;;22.50;13.50;;;;;;;;;;5127635;27;20050;-73
2022/07/23 09:13:53;;;;;;;22.85;14.35;;;;;;;;;;5127832;27;20043;-73
2022/07/23 09:16:29;;;;;;;23.67;15.02;;;;;;;;;;5127626;27;20050;-73
2022/07/23 09:19:07;;;;;;;24.73;13.43;;;;;;;;;;5126416;27;20053;-72
2022/07/23 09:21:39;;;;;;;28.20;14.57;;;;;;;;;;5127757;27;20372;-73
2022/07/23 09:24:15;;;;;;;27.52;15.02;;;;;;;;;;5127786;27;20046;-73
2022/07/23 09:26:52;;;;;;;24.38;14.25;;;;;;;;;;5128301;27;20042;-73
2022/07/23 09:29:25;;;;;;;21.48;14.10;;;;;;;;;;5128058;27;20050;-74
2022/07/23 09:31:58;;;;;;;20.42;12.35;;;;;;;;;;5127356;28;20043;-72
2022/07/23 09:34:38;;;;;;;20.52;11.75;;;;;;;;;;5127325;28;20053;-72
2022/07/23 09:37:13;;;;;;;19.65;11.80;;;;;;;;;;5129719;27;20055;-73
2022/07/23 09:39:45;;;;;;;20.80;12.18;;;;;;;;;;5131659;27;20051;-73
2022/07/23 09:42:20;;;;;;;16.75;10.05;;;;;;;;;;5132020;27;20053;-73
2022/07/23 09:44:53;;;;;;;17.92;11.65;;;;;;;;;;5132382;27;20046;-73
2022/07/23 09:47:25;;;;;;;18.02;11.65;;;;;;;;;;5131582;27;20055;-72
2022/07/23 09:50:08;;;;;;;16.83;12.15;;;;;;;;;;5131224;27;20039;-72
2022/07/23 09:52:48;;;;;;;17.35;10.18;;;;;;;;;;5130823;27;20043;-73
2022/07/23 09:55:19;;;;;;;18.38;10.10;;;;;;;;;;5129820;27;20051;-73
2022/07/23 09:57:54;;;;;;;16.92;10.57;;;;;;;;;;5131339;27;20486;-73
2022/07/23 10:00:24;;;;;;;19.73;10.50;;;;;;;;;;5131507;27;20058;-73
2022/07/23 10:02:56;;;;;;;16.98;10.98;;;;;;;;;;5131254;27;20043;-73
2022/07/23 10:05:31;;;;;;;19.02;11.55;;;;;;;;;;5131343;27;20059;-73
2022/07/23 10:08:20;;;;;;;17.83;12.95;;;;;;;;;;5134917;27;20055;-73
2022/07/23 10:11:16;;;;;;;18.70;11.65;;;;;;;;;;5125009;27;20429;-73
2022/07/23 10:14:03;;;;;;;17.75;11.38;;;;;;;;;;5129992;27;20417;-73
2022/07/23 10:16:54;;;;;;;17.63;12.82;;;;;;;;;;5131263;27;20055;-73
2022/07/23 10:19:25;;;;;;;21.05;13.73;;;;;;;;;;5131777;27;20050;-73
2022/07/23 10:22:08;;;;;;;19.92;13.13;;;;;;;;;;5131108;27;20498;-74
2022/07/23 10:24:53;;;;;;;19.73;13.55;;;;;;;;;;5131143;27;20536;-72
2022/07/23 10:27:42;;;;;;;23.77;14.38;;;;;;;;;;5130470;27;20050;-74
2022/07/23 10:30:30;;;;;;;21.05;13.88;;;;;;;;;;5130235;27;20050;-73
2022/07/23 10:33:20;;;;;;;20.27;14.27;;;;;;;;;;5129555;27;20517;-73
2022/07/23 10:36:13;;;;;;;21.20;13.45;;;;;;;;;;5131078;27;20129;-72
2022/07/23 10:39:22;;;;;;;23.58;13.85;;;;;;;;;;5130768;27;20043;-72
2022/07/23 10:42:07;;;;;;;19.42;12.30;;;;;;;;;;5130420;27;20410;-73
2022/07/23 10:44:47;;;;;;;17.83;10.27;;;;;;;;;;5130682;27;20394;-73
2022/07/23 10:50:23;;;;;;;22.42;11.18;;;;;;;;;;5130587;27;20043;-73
2022/07/23 10:53:15;;;;;;;17.45;11.05;;;;;;;;;;5130491;27;20078;-73
2022/07/23 10:55:51;;;;;;;19.00;13.32;;;;;;;;;;5129751;27;20074;-75
2022/07/23 10:58:44;;;;;;;17.77;11.60;;;;;;;;;;5130167;27;20039;-74
2022/07/23 11:01:37;;;;;;;22.77;11.00;;;;;;;;;;5130353;27;20043;-72
2022/07/23 11:04:08;;;;;;;20.02;11.25;;;;;;;;;;5130302;27;20521;-72
2022/07/23 11:07:04;;;;;;;17.20;11.73;;;;;;;;;;5129856;27;20429;-73
2022/07/23 11:09:42;;;;;;;21.33;12.38;;;;;;;;;;5129320;27;20078;-75
2022/07/23 11:12:21;;;;;;;21.75;13.30;;;;;;;;;;5130340;27;20058;-72
2022/07/23 11:15:09;;;;;;;15.60;9.60;;;;;;;;;;5130389;27;20414;-72
2022/07/23 11:18:01;;;;;;;14.02;9.60;;;;;;;;;;5130053;27;20031;-72
2022/07/23 11:20:31;;;;;;;13.75;9.23;;;;;;;;;;5129822;27;20557;-75
2022/07/23 11:23:03;;;;;;;15.40;9.60;;;;;;;;;;5128712;27;20051;-73
2022/07/23 11:25:35;;;;;;;15.68;10.05;;;;;;;;;;5130012;27;20050;-73
2022/07/23 11:28:17;;;;;;;16.80;10.10;;;;;;;;;;5129787;27;20047;-73
2022/07/23 11:30:47;;;;;;;13.90;10.15;;;;;;;;;;5129719;27;20533;-73
2022/07/23 11:33:19;;;;;;;12.40;9.02;;;;;;;;;;5129689;27;20051;-73
2022/07/23 11:36:02;;;;;;;11.60;8.40;;;;;;;;;;5128346;27;20047;-72
2022/07/23 11:38:32;;;;;;;21.35;11.18;;;;;;;;;;5129796;27;20038;-72
2022/07/23 11:41:02;;;;;;;13.18;8.18;;;;;;;;;;5129878;27;20058;-75
2022/07/23 11:43:36;;;;;;;11.98;7.05;;;;;;;;;;5129579;27;20061;-73
2022/07/23 11:46:10;;;;;;;12.15;7.35;;;;;;;;;;5127466;27;20059;-73
2022/07/23 11:48:40;;;;;;;13.43;6.95;;;;;;;;;;5129368;27;20058;-73
2022/07/23 11:51:26;;;;;;;9.48;7.65;;;;;;;;;;5127480;27;20059;-73
2022/07/23 11:54:06;;;;;;;8.65;6.40;;;;;;;;;;5129589;27;20071;-76
2022/07/23 11:56:36;;;;;;;14.18;9.15;;;;;;;;;;5129452;27;20054;-73
2022/07/23 11:59:08;;;;;;;15.30;10.80;;;;;;;;;;5128405;27;20047;-74
2022/07/23 12:01:55;;;;;;;12.82;8.55;;;;;;;;;;5128791;27;20050;-73
2022/07/23 12:04:44;;;;;;;15.75;9.48;;;;;;;;;;5129296;27;20047;-74
2022/07/23 12:07:49;;;;;;;12.90;9.52;;;;;;;;;;5129393;27;20043;-73
2022/07/23 12:10:30;;;;;;;17.55;11.68;;;;;;;;;;5122627;27;20047;-74
2022/07/23 12:13:12;;;;;;;17.48;12.32;;;;;;;;;;5128253;27;20055;-74
2022/07/23 12:15:44;;;;;;;13.43;9.93;;;;;;;;;;5128826;27;20058;-74
2022/07/23 12:18:21;;;;;;;17.70;10.55;;;;;;;;;;5128477;27;20649;-74
2022/07/23 12:20:54;;;;;;;16.85;9.82;;;;;;;;;;5128905;27;20051;-73
2022/07/23 12:23:26;;;;;;;14.75;10.73;;;;;;;;;;5128855;27;20054;-72
2022/07/23 12:26:00;;;;;;;16.80;11.02;;;;;;;;;;5128577;27;20058;-73
2022/07/23 12:28:37;;;;;;;15.25;10.63;;;;;;;;;;5128550;27;20043;-75
2022/07/23 12:31:07;;;;;;;15.52;9.57;;;;;;;;;;5128586;27;20087;-73
2022/07/23 12:33:41;;;;;;;15.60;11.05;;;;;;;;;;5129186;27;20047;-75
2022/07/23 12:36:12;;;;;;;14.02;9.88;;;;;;;;;;5128837;27;20081;-73
2022/07/23 12:38:49;;;;;;;15.02;8.75;;;;;;;;;;5128416;27;20391;-74
2022/07/23 12:41:19;;;;;;;14.55;9.55;;;;;;;;;;5128383;27;20046;-74
2022/07/23 12:43:49;;;;;;;16.25;10.48;;;;;;;;;;5126903;27;20051;-73
2022/07/23 12:46:21;;;;;;;14.93;9.60;;;;;;;;;;5127888;27;20047;-73
2022/07/23 12:48:52;;;;;;;15.30;10.73;;;;;;;;;;5128288;27;20051;-74
2022/07/23 12:51:32;;;;;;;17.33;9.95;;;;;;;;;;5128033;27;20494;-72
2022/07/23 12:54:09;;;;;;;12.80;8.90;;;;;;;;;;5127599;27;20125;-73
2022/07/23 12:56:41;;;;;;;11.90;8.93;;;;;;;;;;5128134;27;20039;-75
2022/07/23 12:59:17;;;;;;;14.88;9.48;;;;;;;;;;5128446;27;20058;-73
2022/07/23 13:02:00;;;;;;;16.70;10.50;;;;;;;;;;5127759;27;20058;-73
2022/07/23 13:04:33;;;;;;;12.35;9.18;;;;;;;;;;5127627;27;20525;-73
2022/07/23 13:07:03;;;;;;;14.43;9.80;;;;;;;;;;5127966;27;20051;-75
2022/07/23 13:09:34;;;;;;;14.63;9.75;;;;;;;;;;5126909;27;20780;-73
2022/07/23 13:12:11;;;;;;;12.23;8.73;;;;;;;;;;5126477;27;20537;-72
2022/07/23 13:14:41;;;;;;;13.25;8.82;;;;;;;;;;5127741;27;20051;-75
2022/07/23 13:17:10;;;;;;;11.63;7.90;;;;;;;;;;5126798;27;20058;-74
2022/07/23 13:19:41;;;;;;;13.57;7.70;;;;;;;;;;5127922;27;20069;-73
2022/07/23 13:22:11;;;;;;;12.65;8.13;;;;;;;;;;5127250;27;20058;-75
2022/07/23 13:24:41;;;;;;;14.55;8.43;;;;;;;;;;5127890;27;20043;-75
2022/07/23 13:27:12;;;;;;;15.25;9.32;;;;;;;;;;5127993;27;20039;-78
2022/07/23 13:29:44;;;;;;;12.63;8.52;;;;;;;;;;5128170;27;20039;-74
2022/07/23 13:32:14;;;;;;;12.90;8.43;;;;;;;;;;5127538;27;20080;-77
2022/07/23 13:34:44;;;;;;;11.65;8.50;;;;;;;;;;5128041;28;20062;-75
2022/07/23 13:37:18;;;;;;;12.70;8.02;;;;;;;;;;5127339;28;20047;-74
2022/07/23 13:39:48;;;;;;;14.65;8.43;;;;;;;;;;5127627;28;20593;-75
2022/07/23 13:42:18;;;;;;;12.65;8.10;;;;;;;;;;5127263;28;20039;-75
2022/07/23 13:44:52;;;;;;;13.30;6.88;;;;;;;;;;5127459;28;20414;-75
2022/07/23 13:47:23;;;;;;;12.40;9.73;;;;;;;;;;5127574;28;20040;-74
2022/07/23 13:49:53;;;;;;;13.57;6.93;;;;;;;;;;5127503;28;20043;-73
2022/07/23 13:52:24;;;;;;;9.55;6.22;;;;;;;;;;5126273;28;20125;-75
2022/07/23 13:54:54;;;;;;;10.27;6.78;;;;;;;;;;5127712;28;20062;-73
2022/07/23 13:57:25;;;;;;;12.57;7.75;;;;;;;;;;5127687;28;20046;-74
2022/07/23 13:59:54;;;;;;;10.15;7.65;;;;;;;;;;5127134;28;20047;-74
2022/07/23 14:02:25;;;;;;;12.23;7.07;;;;;;;;;;5127005;28;20046;-73
2022/07/23 14:04:56;;;;;;;13.05;7.75;;;;;;;;;;5127097;27;20051;-73
2022/07/23 14:07:26;;;;;;;11.07;7.32;;;;;;;;;;5127412;28;20382;-73
2022/07/23 14:09:56;;;;;;;11.27;6.65;;;;;;;;;;5127076;28;20047;-74
2022/07/23 14:12:27;;;;;;;12.27;6.68;;;;;;;;;;5127612;28;20410;-73
2022/07/23 14:15:17;;;;;;;11.77;6.78;;;;;;;;;;5127046;28;20043;-73
2022/07/23 14:17:49;;;;;;;10.50;6.15;;;;;;;;;;5127372;28;20596;-75
2022/07/23 14:20:21;;;;;;;12.50;6.60;;;;;;;;;;5127788;28;20050;-75
2022/07/23 14:22:51;;;;;;;10.20;5.97;;;;;;;;;;5128684;27;20494;-75
2022/07/23 14:25:21;;;;;;;10.35;5.72;;;;;;;;;;5131124;27;20054;-73
2022/07/23 14:27:54;;;;;;;9.90;5.22;;;;;;;;;;5130962;27;20047;-74
2022/07/23 14:30:24;;;;;;;10.07;6.30;;;;;;;;;;5130758;27;20058;-73
2022/07/23 14:33:02;;;;;;;11.98;5.47;;;;;;;;;;5131128;27;20502;-74
2022/07/23 14:35:32;;;;;;;13.45;5.70;;;;;;;;;;5131075;27;20058;-73
2022/07/23 14:38:03;;;;;;;11.07;5.32;;;;;;;;;;5131063;27;20402;-74
2022/07/23 14:40:33;;;;;;;10.85;5.05;;;;;;;;;;5131314;27;20102;-73
2022/07/23 14:43:02;;;;;;;13.52;4.70;;;;;;;;;;5131063;27;20416;-73
2022/07/23 14:45:36;;;;;;;9.32;4.00;;;;;;;;;;5130729;27;20407;-73
2022/07/23 14:48:06;;;;;;;6.03;4.07;;;;;;;;;;5130363;27;20051;-73
2022/07/23 14:50:36;;;;;;;7.93;3.67;;;;;;;;;;5130355;27;20047;-73
2022/07/23 14:53:06;;;;;;;11.25;4.40;;;;;;;;;;5131259;27;20062;-76
2022/07/23 14:55:36;;;;;;;5.20;3.30;;;;;;;;;;5130583;27;20058;-73
2022/07/23 14:58:07;;;;;;;6.63;3.78;;;;;;;;;;5130430;27;20043;-73
2022/07/23 15:00:37;;;;;;;10.55;3.50;;;;;;;;;;5130138;27;20050;-74
2022/07/23 15:03:07;;;;;;;6.13;3.83;;;;;;;;;;5130388;27;20043;-73
2022/07/23 15:05:37;;;;;;;9.70;3.97;;;;;;;;;;5130870;27;20051;-73